createdAt,value
2022-09-01T00:00:18.979Z,10.30
2022-09-01T00:10:25.635Z,10.20
2022-09-01T00:20:31.095Z,10.10
2022-09-01T00:30:36.848Z,10.10
2022-09-01T00:40:40.721Z,9.90
2022-09-01T00:50:50.802Z,9.80
2022-09-01T01:00:59.743Z,9.60
2022-09-01T01:11:09.436Z,9.40
2022-09-01T01:21:37.424Z,9.30
2022-09-01T01:31:43.076Z,9.30
2022-09-01T01:41:49.078Z,9.20
2022-09-01T01:51:58.029Z,9.20
2022-09-01T02:02:10.503Z,9.10
2022-09-01T02:12:19.314Z,9.10
2022-09-01T02:22:23.217Z,9.20
2022-09-01T02:32:28.577Z,9.20
2022-09-01T02:42:33.297Z,9.10
2022-09-01T02:52:40.618Z,9.10
2022-09-01T03:02:45.731Z,9.10
2022-09-01T03:12:51.234Z,9.10
2022-09-01T03:22:57.289Z,9.10
2022-09-01T03:33:04.247Z,9.20
2022-09-01T03:43:14.015Z,9.10
2022-09-01T03:53:25.501Z,9.10
2022-09-01T04:03:32.505Z,9.10
2022-09-01T04:13:42.359Z,9.10
2022-09-01T04:23:46.635Z,9.10
2022-09-01T04:33:54.255Z,9.00
2022-09-01T04:44:00.423Z,9.10
2022-09-01T04:54:12.944Z,9.30
2022-09-01T05:04:19.692Z,9.50
2022-09-01T05:14:26.422Z,9.90
2022-09-01T05:24:32.297Z,10.00
2022-09-01T05:34:43.992Z,10.20
2022-09-01T05:44:49.040Z,10.50
2022-09-01T05:55:00.384Z,10.90
2022-09-01T06:05:07.020Z,11.90
2022-09-01T06:15:16.379Z,13.40
2022-09-01T06:25:26.595Z,14.40
2022-09-01T06:35:32.606Z,15.80
2022-09-01T06:45:42.414Z,17.60
2022-09-01T06:55:50.892Z,19.10
2022-09-01T07:06:04.170Z,20.30
2022-09-01T07:16:51.822Z,23.40
2022-09-01T07:27:07.569Z,25.70
2022-09-01T07:38:02.973Z,28.20
2022-09-01T07:47:55.882Z,30.50
2022-09-01T07:58:01.693Z,32.20
2022-09-01T08:08:18.581Z,34.10
2022-09-01T08:18:24.929Z,34.80
2022-09-01T08:28:29.056Z,36.60
2022-09-01T08:38:34.896Z,37.00
2022-09-01T08:49:24.279Z,38.10
2022-09-01T08:59:15.029Z,39.00
2022-09-01T09:09:53.843Z,39.30
2022-09-01T09:19:59.402Z,39.90
2022-09-01T09:30:09.331Z,43.30
2022-09-01T09:40:17.465Z,45.80
2022-09-01T09:50:27.434Z,47.10
2022-09-01T10:00:35.138Z,40.60
2022-09-01T10:10:42.934Z,35.90
2022-09-01T10:20:56.133Z,34.90
2022-09-01T10:31:00.292Z,28.30
2022-09-01T10:41:15.921Z,25.60
2022-09-01T10:51:56.379Z,31.10
2022-09-01T11:02:26.866Z,28.10
2022-09-01T11:12:53.472Z,35.00
2022-09-01T11:23:08.960Z,41.70
2022-09-01T11:34:01.038Z,37.00
2022-09-01T11:44:16.789Z,31.10
2022-09-01T11:54:20.372Z,41.00
2022-09-01T12:04:31.985Z,32.70
2022-09-01T12:15:02.089Z,34.70
2022-09-01T12:25:00.920Z,43.30
2022-09-01T12:35:11.349Z,43.10
2022-09-01T12:45:44.045Z,43.90
2022-09-01T12:56:18.300Z,48.90
2022-09-01T13:06:23.360Z,38.20
2022-09-01T13:16:26.955Z,31.50
2022-09-01T13:26:32.021Z,28.60
2022-09-01T13:36:45.126Z,26.00
2022-09-01T13:57:16.725Z,23.10
2022-09-01T14:07:22.223Z,22.80
2022-09-01T14:17:26.502Z,22.40
2022-09-01T14:27:31.662Z,22.10
2022-09-01T14:37:36.196Z,22.20
2022-09-01T14:47:41.353Z,21.70
2022-09-01T14:57:45.257Z,21.80
2022-09-01T15:07:51.293Z,20.90
2022-09-01T15:17:55.531Z,19.90
2022-09-01T15:28:01.497Z,19.60
2022-09-01T15:38:07.211Z,19.50
2022-09-01T15:48:12.570Z,19.20
2022-09-01T15:58:19.621Z,18.60
2022-09-01T16:08:25.279Z,18.40
2022-09-01T16:18:35.342Z,18.10
2022-09-01T16:28:44.232Z,17.80
2022-09-01T16:38:52.349Z,17.40
2022-09-01T16:49:14.797Z,17.00
2022-09-01T16:59:33.459Z,16.50
2022-09-01T17:09:42.637Z,16.00
2022-09-01T17:19:52.206Z,15.70
2022-09-01T17:29:58.612Z,15.40
2022-09-01T17:40:13.661Z,15.40
2022-09-01T17:50:28.577Z,15.20
2022-09-01T18:00:41.075Z,14.90
2022-09-01T18:10:52.541Z,14.80
2022-09-01T18:21:04.256Z,14.80
2022-09-01T18:31:37.794Z,14.80
2022-09-01T18:41:56.376Z,14.60
2022-09-01T18:52:18.606Z,14.10
2022-09-01T19:02:39.719Z,13.70
2022-09-01T19:12:56.699Z,13.40
2022-09-01T19:23:07.369Z,12.90
2022-09-01T19:33:17.084Z,12.50
2022-09-01T19:43:21.971Z,12.10
2022-09-01T19:53:42.695Z,11.60
2022-09-01T20:03:50.905Z,11.40
2022-09-01T20:14:15.482Z,11.20
2022-09-01T20:24:33.608Z,10.90
2022-09-01T20:34:47.854Z,10.60
2022-09-01T20:44:59.054Z,10.20
2022-09-01T20:55:12.443Z,9.80
2022-09-01T21:05:41.332Z,9.40
2022-09-01T21:15:54.784Z,9.10
2022-09-01T21:26:00.118Z,8.70
2022-09-01T21:36:05.938Z,8.40
2022-09-01T21:46:10.990Z,8.30
2022-09-01T21:56:16.357Z,8.20
2022-09-01T22:06:23.188Z,7.90
2022-09-01T22:16:29.273Z,7.70
2022-09-01T22:26:39.594Z,7.50
2022-09-01T22:36:47.873Z,7.50
2022-09-01T22:46:52.285Z,7.30
2022-09-01T22:56:58.648Z,7.10
2022-09-01T23:07:03.412Z,7.00
2022-09-01T23:17:08.934Z,6.90
2022-09-01T23:27:12.804Z,6.70
2022-09-01T23:37:18.213Z,6.50
2022-09-01T23:47:22.026Z,6.40
2022-09-01T23:57:27.291Z,6.20
